sensor_id;sensor_type;location;lat;lon;timestamp;temperature;humidity
57030;DHT22;42920;45.306;20.448;2023-07-16T00:00:30;640.10;2432.00
57030;DHT22;42920;45.306;20.448;2023-07-16T00:02:56;640.00;2432.00
57030;DHT22;42920;45.306;20.448;2023-07-16T00:05:22;640.00;2432.00
57030;DHT22;42920;45.306;20.448;2023-07-16T00:07:47;615.30;2432.00
57030;DHT22;42920;45.306;20.448;2023-07-16T00:10:13;615.30;2432.00
57030;DHT22;42920;45.306;20.448;2023-07-16T00:12:39;640.10;2432.00
57030;DHT22;42920;45.306;20.448;2023-07-16T00:15:05;640.10;2432.00
57030;DHT22;42920;45.306;20.448;2023-07-16T00:17:33;640.10;2432.00
57030;DHT22;42920;45.306;20.448;2023-07-16T00:19:58;615.30;2432.00
57030;DHT22;42920;45.306;20.448;2023-07-16T00:22:24;615.20;2432.00
57030;DHT22;42920;45.306;20.448;2023-07-16T00:24:50;615.20;2432.00
57030;DHT22;42920;45.306;20.448;2023-07-16T00:27:16;615.10;2432.00
57030;DHT22;42920;45.306;20.448;2023-07-16T00:29:41;615.20;2432.00
57030;DHT22;42920;45.306;20.448;2023-07-16T00:32:07;615.30;2432.00
57030;DHT22;42920;45.306;20.448;2023-07-16T00:34:33;615.30;2432.00
57030;DHT22;42920;45.306;20.448;2023-07-16T00:36:58;615.30;2432.00
57030;DHT22;42920;45.306;20.448;2023-07-16T00:39:30;615.10;2432.00
57030;DHT22;42920;45.306;20.448;2023-07-16T00:41:56;615.10;2432.00
57030;DHT22;42920;45.306;20.448;2023-07-16T00:44:22;615.10;2432.00
57030;DHT22;42920;45.306;20.448;2023-07-16T00:46:48;615.00;2432.00
57030;DHT22;42920;45.306;20.448;2023-07-16T00:49:14;614.90;2432.00
57030;DHT22;42920;45.306;20.448;2023-07-16T00:51:41;614.90;2432.00
57030;DHT22;42920;45.306;20.448;2023-07-16T00:54:07;614.90;2432.00
57030;DHT22;42920;45.306;20.448;2023-07-16T00:56:34;614.90;2432.00
57030;DHT22;42920;45.306;20.448;2023-07-16T00:59:00;614.80;2432.00
57030;DHT22;42920;45.306;20.448;2023-07-16T01:01:26;614.90;2432.00
57030;DHT22;42920;45.306;20.448;2023-07-16T01:03:51;614.80;2432.00
57030;DHT22;42920;45.306;20.448;2023-07-16T01:06:36;614.80;2432.00
57030;DHT22;42920;45.306;20.448;2023-07-16T01:09:07;614.90;2432.00
57030;DHT22;42920;45.306;20.448;2023-07-16T01:11:34;614.90;2432.00
57030;DHT22;42920;45.306;20.448;2023-07-16T01:14:01;614.90;2432.00
57030;DHT22;42920;45.306;20.448;2023-07-16T01:16:27;614.80;2432.00
57030;DHT22;42920;45.306;20.448;2023-07-16T01:18:53;614.80;2432.00
57030;DHT22;42920;45.306;20.448;2023-07-16T01:21:21;614.90;2432.00
57030;DHT22;42920;45.306;20.448;2023-07-16T01:29:39;614.80;2432.00
57030;DHT22;42920;45.306;20.448;2023-07-16T01:32:07;614.70;2432.00
57030;DHT22;42920;45.306;20.448;2023-07-16T01:34:34;614.60;2432.00
57030;DHT22;42920;45.306;20.448;2023-07-16T01:37:02;614.60;2432.00
57030;DHT22;42920;45.306;20.448;2023-07-16T01:39:30;614.60;2432.00
57030;DHT22;42920;45.306;20.448;2023-07-16T01:41:56;614.60;2432.00
57030;DHT22;42920;45.306;20.448;2023-07-16T01:44:22;614.60;2432.00
57030;DHT22;42920;45.306;20.448;2023-07-16T01:50:01;614.40;2432.00
57030;DHT22;42920;45.306;20.448;2023-07-16T01:52:26;589.70;2432.00
57030;DHT22;42920;45.306;20.448;2023-07-16T01:54:52;589.70;2432.00
57030;DHT22;42920;45.306;20.448;2023-07-16T01:57:18;589.70;2432.00
57030;DHT22;42920;45.306;20.448;2023-07-16T01:59:43;614.40;2432.00
57030;DHT22;42920;45.306;20.448;2023-07-16T02:02:10;589.70;2432.00
57030;DHT22;42920;45.306;20.448;2023-07-16T02:04:36;589.70;2432.00
57030;DHT22;42920;45.306;20.448;2023-07-16T02:07:01;589.70;2432.00
57030;DHT22;42920;45.306;20.448;2023-07-16T02:09:28;589.70;2432.00
57030;DHT22;42920;45.306;20.448;2023-07-16T02:11:54;589.70;2432.00
57030;DHT22;42920;45.306;20.448;2023-07-16T02:14:19;589.70;2432.00
57030;DHT22;42920;45.306;20.448;2023-07-16T02:16:45;614.40;2432.00
57030;DHT22;42920;45.306;20.448;2023-07-16T02:19:11;614.50;2432.00
57030;DHT22;42920;45.306;20.448;2023-07-16T02:21:37;614.50;2432.00
57030;DHT22;42920;45.306;20.448;2023-07-16T02:24:02;614.60;2432.00
57030;DHT22;42920;45.306;20.448;2023-07-16T02:26:28;614.60;2432.00
57030;DHT22;42920;45.306;20.448;2023-07-16T02:28:54;614.60;2432.00
57030;DHT22;42920;45.306;20.448;2023-07-16T02:31:20;614.50;2432.00
57030;DHT22;42920;45.306;20.448;2023-07-16T02:33:45;614.40;2432.00
57030;DHT22;42920;45.306;20.448;2023-07-16T02:36:11;589.70;2432.00
57030;DHT22;42920;45.306;20.448;2023-07-16T02:38:37;589.70;2432.00
57030;DHT22;42920;45.306;20.448;2023-07-16T02:41:02;589.60;2432.00
57030;DHT22;42920;45.306;20.448;2023-07-16T02:43:28;589.50;2432.00
57030;DHT22;42920;45.306;20.448;2023-07-16T02:45:54;589.50;2432.00
57030;DHT22;42920;45.306;20.448;2023-07-16T02:48:19;589.60;2432.00
57030;DHT22;42920;45.306;20.448;2023-07-16T02:50:45;589.60;2432.00
57030;DHT22;42920;45.306;20.448;2023-07-16T02:53:11;589.50;2432.00
57030;DHT22;42920;45.306;20.448;2023-07-16T02:55:36;589.40;2432.00
57030;DHT22;42920;45.306;20.448;2023-07-16T02:58:02;589.40;2432.00
57030;DHT22;42920;45.306;20.448;2023-07-16T03:00:30;589.30;2432.00
57030;DHT22;42920;45.306;20.448;2023-07-16T03:02:57;589.30;2432.00
57030;DHT22;42920;45.306;20.448;2023-07-16T03:05:24;589.30;2432.00
57030;DHT22;42920;45.306;20.448;2023-07-16T03:07:50;589.30;2432.00
57030;DHT22;42920;45.306;20.448;2023-07-16T03:10:16;589.20;2432.00
57030;DHT22;42920;45.306;20.448;2023-07-16T03:12:41;589.20;2432.00
57030;DHT22;42920;45.306;20.448;2023-07-16T03:15:08;589.20;2432.00
57030;DHT22;42920;45.306;20.448;2023-07-16T03:17:33;589.30;2432.00
57030;DHT22;42920;45.306;20.448;2023-07-16T03:19:59;589.30;2432.00
57030;DHT22;42920;45.306;20.448;2023-07-16T03:22:25;589.20;2432.00
57030;DHT22;42920;45.306;20.448;2023-07-16T03:24:51;589.20;2432.00
57030;DHT22;42920;45.306;20.448;2023-07-16T03:27:16;589.30;2432.00
57030;DHT22;42920;45.306;20.448;2023-07-16T03:29:42;589.30;2432.00
57030;DHT22;42920;45.306;20.448;2023-07-16T03:32:08;589.30;2432.00
57030;DHT22;42920;45.306;20.448;2023-07-16T03:34:34;589.30;2432.00
57030;DHT22;42920;45.306;20.448;2023-07-16T03:36:59;589.30;2432.00
57030;DHT22;42920;45.306;20.448;2023-07-16T03:39:25;589.50;2432.00
57030;DHT22;42920;45.306;20.448;2023-07-16T03:41:51;589.40;2432.00
57030;DHT22;42920;45.306;20.448;2023-07-16T03:44:16;589.40;2432.00
57030;DHT22;42920;45.306;20.448;2023-07-16T03:46:42;589.50;2432.00
57030;DHT22;42920;45.306;20.448;2023-07-16T03:49:08;589.50;2432.00
57030;DHT22;42920;45.306;20.448;2023-07-16T03:51:34;589.50;2432.00
57030;DHT22;42920;45.306;20.448;2023-07-16T03:54:00;589.50;2432.00
57030;DHT22;42920;45.306;20.448;2023-07-16T03:56:26;589.60;2432.00
57030;DHT22;42920;45.306;20.448;2023-07-16T03:58:51;589.60;2432.00
57030;DHT22;42920;45.306;20.448;2023-07-16T04:01:17;589.60;2432.00
57030;DHT22;42920;45.306;20.448;2023-07-16T04:03:43;589.50;2432.00
57030;DHT22;42920;45.306;20.448;2023-07-16T04:06:09;589.70;2432.00
57030;DHT22;42920;45.306;20.448;2023-07-16T04:08:36;589.70;2432.00
57030;DHT22;42920;45.306;20.448;2023-07-16T04:11:03;589.70;2432.00
57030;DHT22;42920;45.306;20.448;2023-07-16T04:13:29;589.70;2432.00
57030;DHT22;42920;45.306;20.448;2023-07-16T04:15:55;614.40;2432.00
57030;DHT22;42920;45.306;20.448;2023-07-16T04:18:23;614.40;2432.00
57030;DHT22;42920;45.306;20.448;2023-07-16T04:20:49;614.50;2432.00
57030;DHT22;42920;45.306;20.448;2023-07-16T04:23:15;614.60;2432.00
57030;DHT22;42920;45.306;20.448;2023-07-16T04:25:40;614.70;2432.00
57030;DHT22;42920;45.306;20.448;2023-07-16T04:28:06;614.70;2432.00
57030;DHT22;42920;45.306;20.448;2023-07-16T04:30:32;614.80;2432.00
57030;DHT22;42920;45.306;20.448;2023-07-16T04:32:57;614.80;2432.00
57030;DHT22;42920;45.306;20.448;2023-07-16T04:35:23;614.80;2432.00
57030;DHT22;42920;45.306;20.448;2023-07-16T04:37:49;614.90;2432.00
57030;DHT22;42920;45.306;20.448;2023-07-16T04:40:14;615.00;2432.00
57030;DHT22;42920;45.306;20.448;2023-07-16T04:42:40;615.10;2432.00
57030;DHT22;42920;45.306;20.448;2023-07-16T04:45:06;615.20;2432.00
57030;DHT22;42920;45.306;20.448;2023-07-16T04:47:32;615.30;2432.00
57030;DHT22;42920;45.306;20.448;2023-07-16T04:49:58;615.30;2432.00
57030;DHT22;42920;45.306;20.448;2023-07-16T04:52:24;640.00;2432.00
57030;DHT22;42920;45.306;20.448;2023-07-16T04:54:50;640.00;2432.00
57030;DHT22;42920;45.306;20.448;2023-07-16T04:57:16;640.10;2432.00
57030;DHT22;42920;45.306;20.448;2023-07-16T04:59:41;640.20;2432.00
57030;DHT22;42920;45.306;20.448;2023-07-16T05:02:07;640.30;2432.00
57030;DHT22;42920;45.306;20.448;2023-07-16T05:04:34;640.40;2432.00
57030;DHT22;42920;45.306;20.448;2023-07-16T05:07:01;640.30;2432.00
57030;DHT22;42920;45.306;20.448;2023-07-16T05:09:28;640.50;2432.00
57030;DHT22;42920;45.306;20.448;2023-07-16T05:11:53;640.40;2432.00
57030;DHT22;42920;45.306;20.448;2023-07-16T05:14:19;640.60;2432.00
57030;DHT22;42920;45.306;20.448;2023-07-16T05:16:45;640.60;2432.00
57030;DHT22;42920;45.306;20.448;2023-07-16T05:19:10;640.60;2432.00
57030;DHT22;42920;45.306;20.448;2023-07-16T05:21:36;640.90;2432.00
57030;DHT22;42920;45.306;20.448;2023-07-16T05:24:02;640.90;2432.00
57030;DHT22;42920;45.306;20.448;2023-07-16T05:26:28;640.90;2432.00
57030;DHT22;42920;45.306;20.448;2023-07-16T05:28:54;665.60;2432.00
57030;DHT22;42920;45.306;20.448;2023-07-16T05:31:19;665.60;2432.00
57030;DHT22;42920;45.306;20.448;2023-07-16T05:33:45;665.70;2432.00
57030;DHT22;42920;45.306;20.448;2023-07-16T05:36:11;665.80;2432.00
57030;DHT22;42920;45.306;20.448;2023-07-16T05:38:36;665.90;2432.00
57030;DHT22;42920;45.306;20.448;2023-07-16T05:41:03;665.90;2432.00
57030;DHT22;42920;45.306;20.448;2023-07-16T05:43:29;666.00;2432.00
57030;DHT22;42920;45.306;20.448;2023-07-16T05:45:55;666.20;2432.00
57030;DHT22;42920;45.306;20.448;2023-07-16T05:48:20;666.20;2432.00
57030;DHT22;42920;45.306;20.448;2023-07-16T05:50:46;666.30;2432.00
57030;DHT22;42920;45.306;20.448;2023-07-16T05:53:12;666.50;2432.00
57030;DHT22;42920;45.306;20.448;2023-07-16T05:55:42;691.20;2432.00
57030;DHT22;42920;45.306;20.448;2023-07-16T06:05:28;691.90;2432.00
57030;DHT22;42920;45.306;20.448;2023-07-16T06:07:58;691.90;2432.00
57030;DHT22;42920;45.306;20.448;2023-07-16T06:10:23;692.10;2432.00
57030;DHT22;42920;45.306;20.448;2023-07-16T06:12:49;692.10;2432.00
57030;DHT22;42920;45.306;20.448;2023-07-16T06:15:15;716.90;2432.00
57030;DHT22;42920;45.306;20.448;2023-07-16T06:17:41;717.10;2432.00
57030;DHT22;42920;45.306;20.448;2023-07-16T06:20:07;717.10;2432.00
57030;DHT22;42920;45.306;20.448;2023-07-16T06:22:33;717.20;2432.00
57030;DHT22;42920;45.306;20.448;2023-07-16T06:24:59;717.30;2432.00
57030;DHT22;42920;45.306;20.448;2023-07-16T06:27:25;717.40;2432.00
57030;DHT22;42920;45.306;20.448;2023-07-16T06:29:51;717.50;2432.00
57030;DHT22;42920;45.306;20.448;2023-07-16T06:32:17;717.70;2432.00
57030;DHT22;42920;45.306;20.448;2023-07-16T06:34:42;742.40;2432.00
57030;DHT22;42920;45.306;20.448;2023-07-16T06:37:08;742.40;2432.00
57030;DHT22;42920;45.306;20.448;2023-07-16T06:39:34;742.50;2432.00
57030;DHT22;42920;45.306;20.448;2023-07-16T06:41:59;742.60;2432.00
57030;DHT22;42920;45.306;20.448;2023-07-16T06:44:25;742.70;2432.00
57030;DHT22;42920;45.306;20.448;2023-07-16T06:46:51;742.90;2432.00
57030;DHT22;42920;45.306;20.448;2023-07-16T06:49:17;743.00;2432.00
57030;DHT22;42920;45.306;20.448;2023-07-16T06:51:42;743.00;2432.00
57030;DHT22;42920;45.306;20.448;2023-07-16T06:54:08;743.10;2432.00
57030;DHT22;42920;45.306;20.448;2023-07-16T06:56:34;743.20;2432.00
57030;DHT22;42920;45.306;20.448;2023-07-16T06:59:00;743.30;2432.00
57030;DHT22;42920;45.306;20.448;2023-07-16T07:01:25;768.10;2432.00
57030;DHT22;42920;45.306;20.448;2023-07-16T07:03:53;768.10;2432.00
57030;DHT22;42920;45.306;20.448;2023-07-16T07:06:19;793.80;2432.00
57030;DHT22;42920;45.306;20.448;2023-07-16T07:08:45;819.30;2227.20
57030;DHT22;42920;45.306;20.448;2023-07-16T07:11:10;844.90;2124.80
57030;DHT22;42920;45.306;20.448;2023-07-16T07:16:02;870.50;1868.80
57030;DHT22;42920;45.306;20.448;2023-07-16T07:18:28;870.60;1817.60
57030;DHT22;42920;45.306;20.448;2023-07-16T07:20:53;870.70;1792.00
57030;DHT22;42920;45.306;20.448;2023-07-16T07:23:19;870.90;1792.00
57030;DHT22;42920;45.306;20.448;2023-07-16T07:25:54;871.10;1740.80
57030;DHT22;42920;45.306;20.448;2023-07-16T07:28:20;870.50;1740.80
57030;DHT22;42920;45.306;20.448;2023-07-16T07:30:46;871.00;1715.20
57030;DHT22;42920;45.306;20.448;2023-07-16T07:33:12;871.30;1689.60
57030;DHT22;42920;45.306;20.448;2023-07-16T07:38:04;896.50;1638.40
57030;DHT22;42920;45.306;20.448;2023-07-16T07:40:29;896.80;1638.40
57030;DHT22;42920;45.306;20.448;2023-07-16T07:42:55;896.80;1638.40
57030;DHT22;42920;45.306;20.448;2023-07-16T07:45:21;896.60;1612.80
57030;DHT22;42920;45.306;20.448;2023-07-16T07:47:46;921.60;1612.80
57030;DHT22;42920;45.306;20.448;2023-07-16T07:50:12;921.60;1638.40
57030;DHT22;42920;45.306;20.448;2023-07-16T07:52:38;896.50;1638.40
57030;DHT22;42920;45.306;20.448;2023-07-16T07:55:04;921.80;1587.20
57030;DHT22;42920;45.306;20.448;2023-07-16T07:57:30;921.90;1587.20
57030;DHT22;42920;45.306;20.448;2023-07-16T07:59:55;922.50;1587.20
57030;DHT22;42920;45.306;20.448;2023-07-16T08:02:25;922.00;1561.60
57030;DHT22;42920;45.306;20.448;2023-07-16T08:04:54;921.90;1587.20
57030;DHT22;42920;45.306;20.448;2023-07-16T08:07:24;922.20;1561.60
57030;DHT22;42920;45.306;20.448;2023-07-16T08:09:51;921.70;1587.20
57030;DHT22;42920;45.306;20.448;2023-07-16T08:12:16;922.00;1587.20
57030;DHT22;42920;45.306;20.448;2023-07-16T08:14:42;922.00;1587.20
57030;DHT22;42920;45.306;20.448;2023-07-16T08:17:08;922.10;1561.60
57030;DHT22;42920;45.306;20.448;2023-07-16T08:19:34;921.80;1587.20
57030;DHT22;42920;45.306;20.448;2023-07-16T08:21:59;896.90;1561.60
57030;DHT22;42920;45.306;20.448;2023-07-16T08:24:25;922.00;1536.00
57030;DHT22;42920;45.306;20.448;2023-07-16T08:26:51;922.20;1561.60
57030;DHT22;42920;45.306;20.448;2023-07-16T08:29:17;922.50;1561.60
57030;DHT22;42920;45.306;20.448;2023-07-16T08:31:43;922.50;1510.40
57030;DHT22;42920;45.306;20.448;2023-07-16T08:34:08;922.00;1536.00
57030;DHT22;42920;45.306;20.448;2023-07-16T08:36:34;922.00;1510.40
57030;DHT22;42920;45.306;20.448;2023-07-16T08:39:00;922.00;1536.00
57030;DHT22;42920;45.306;20.448;2023-07-16T08:41:26;922.10;1536.00
57030;DHT22;42920;45.306;20.448;2023-07-16T08:43:52;921.70;1561.60
57030;DHT22;42920;45.306;20.448;2023-07-16T08:46:18;922.00;1587.20
57030;DHT22;42920;45.306;20.448;2023-07-16T08:48:45;922.20;1587.20
57030;DHT22;42920;45.306;20.448;2023-07-16T08:51:14;922.50;1510.40
57030;DHT22;42920;45.306;20.448;2023-07-16T08:53:41;922.50;1536.00
57030;DHT22;42920;45.306;20.448;2023-07-16T08:56:06;947.40;1510.40
57030;DHT22;42920;45.306;20.448;2023-07-16T08:58:32;947.80;1484.80
57030;DHT22;42920;45.306;20.448;2023-07-16T09:00:59;922.30;1484.80
57030;DHT22;42920;45.306;20.448;2023-07-16T09:03:26;922.30;1510.40
57030;DHT22;42920;45.306;20.448;2023-07-16T09:05:53;922.50;1510.40
57030;DHT22;42920;45.306;20.448;2023-07-16T09:08:19;948.10;1484.80
57030;DHT22;42920;45.306;20.448;2023-07-16T09:10:53;947.90;1459.20
57030;DHT22;42920;45.306;20.448;2023-07-16T09:13:19;972.90;1484.80
57030;DHT22;42920;45.306;20.448;2023-07-16T09:15:51;972.90;1484.80
57030;DHT22;42920;45.306;20.448;2023-07-16T09:18:23;972.90;1459.20
57030;DHT22;42920;45.306;20.448;2023-07-16T09:20:58;948.10;1433.60
57030;DHT22;42920;45.306;20.448;2023-07-16T09:23:26;948.10;1433.60
57030;DHT22;42920;45.306;20.448;2023-07-16T09:25:55;948.00;1510.40
57030;DHT22;42920;45.306;20.448;2023-07-16T09:28:21;948.10;1484.80
57030;DHT22;42920;45.306;20.448;2023-07-16T09:30:47;947.80;1510.40
57030;DHT22;42920;45.306;20.448;2023-07-16T09:33:15;947.90;1536.00
57030;DHT22;42920;45.306;20.448;2023-07-16T09:35:41;973.00;1510.40
57030;DHT22;42920;45.306;20.448;2023-07-16T09:38:08;973.20;1484.80
57030;DHT22;42920;45.306;20.448;2023-07-16T09:40:38;973.20;1510.40
57030;DHT22;42920;45.306;20.448;2023-07-16T09:43:06;973.50;1484.80
57030;DHT22;42920;45.306;20.448;2023-07-16T09:45:32;973.20;1484.80
57030;DHT22;42920;45.306;20.448;2023-07-16T09:47:57;973.30;1484.80
57030;DHT22;42920;45.306;20.448;2023-07-16T09:50:23;973.30;1459.20
57030;DHT22;42920;45.306;20.448;2023-07-16T09:52:51;973.30;1408.00
57030;DHT22;42920;45.306;20.448;2023-07-16T09:55:18;973.10;1433.60
57030;DHT22;42920;45.306;20.448;2023-07-16T09:57:47;973.20;1408.00
57030;DHT22;42920;45.306;20.448;2023-07-16T10:00:15;973.20;1433.60
57030;DHT22;42920;45.306;20.448;2023-07-16T10:02:41;973.70;1408.00
57030;DHT22;42920;45.306;20.448;2023-07-16T10:07:40;998.40;1408.00
57030;DHT22;42920;45.306;20.448;2023-07-16T10:10:10;973.60;1382.40
57030;DHT22;42920;45.306;20.448;2023-07-16T10:12:37;973.60;1382.40
57030;DHT22;42920;45.306;20.448;2023-07-16T10:15:05;973.30;1408.00
57030;DHT22;42920;45.306;20.448;2023-07-16T10:17:32;998.40;1408.00
57030;DHT22;42920;45.306;20.448;2023-07-16T10:22:47;998.90;1356.80
57030;DHT22;42920;45.306;20.448;2023-07-16T10:27:50;998.90;1382.40
57030;DHT22;42920;45.306;20.448;2023-07-16T10:30:16;999.00;1331.20
57030;DHT22;42920;45.306;20.448;2023-07-16T10:32:43;998.90;1331.20
57030;DHT22;42920;45.306;20.448;2023-07-16T10:35:09;998.80;1331.20
57030;DHT22;42920;45.306;20.448;2023-07-16T10:37:36;1024.00;1305.60
57030;DHT22;42920;45.306;20.448;2023-07-16T10:40:02;999.10;1280.00
57030;DHT22;42920;45.306;20.448;2023-07-16T10:42:29;999.10;1305.60
57030;DHT22;42920;45.306;20.448;2023-07-16T10:44:58;1024.20;1331.20
57030;DHT22;42920;45.306;20.448;2023-07-16T10:47:32;1024.00;1305.60
57030;DHT22;42920;45.306;20.448;2023-07-16T10:49:59;999.20;1254.40
57030;DHT22;42920;45.306;20.448;2023-07-16T10:52:26;999.30;1331.20
57030;DHT22;42920;45.306;20.448;2023-07-16T10:54:52;998.80;1331.20
57030;DHT22;42920;45.306;20.448;2023-07-16T10:57:24;1024.10;1280.00
57030;DHT22;42920;45.306;20.448;2023-07-16T10:59:58;999.10;1280.00
57030;DHT22;42920;45.306;20.448;2023-07-16T11:02:25;999.20;1280.00
57030;DHT22;42920;45.306;20.448;2023-07-16T11:04:51;1024.20;1254.40
57030;DHT22;42920;45.306;20.448;2023-07-16T11:07:21;1049.60;1228.80
57030;DHT22;42920;45.306;20.448;2023-07-16T11:09:52;1024.20;1228.80
57030;DHT22;42920;45.306;20.448;2023-07-16T11:12:20;1024.20;1203.20
57030;DHT22;42920;45.306;20.448;2023-07-16T11:14:50;1024.40;1228.80
57030;DHT22;42920;45.306;20.448;2023-07-16T11:17:16;999.20;1203.20
57030;DHT22;42920;45.306;20.448;2023-07-16T11:19:45;998.80;1254.40
57030;DHT22;42920;45.306;20.448;2023-07-16T11:22:11;999.20;1305.60
57030;DHT22;42920;45.306;20.448;2023-07-16T11:27:16;1024.50;1254.40
57030;DHT22;42920;45.306;20.448;2023-07-16T11:29:46;1024.00;1228.80
57030;DHT22;42920;45.306;20.448;2023-07-16T11:32:13;1024.30;1280.00
57030;DHT22;42920;45.306;20.448;2023-07-16T11:34:51;1024.70;1254.40
57030;DHT22;42920;45.306;20.448;2023-07-16T11:37:17;1024.40;1305.60
57030;DHT22;42920;45.306;20.448;2023-07-16T11:39:43;1024.40;1254.40
57030;DHT22;42920;45.306;20.448;2023-07-16T11:42:09;999.30;1280.00
57030;DHT22;42920;45.306;20.448;2023-07-16T11:44:35;999.10;1280.00
57030;DHT22;42920;45.306;20.448;2023-07-16T11:47:02;1024.40;1280.00
57030;DHT22;42920;45.306;20.448;2023-07-16T11:49:27;1049.80;1228.80
57030;DHT22;42920;45.306;20.448;2023-07-16T11:51:53;1024.40;1228.80
57030;DHT22;42920;45.306;20.448;2023-07-16T11:54:19;1024.50;1228.80
57030;DHT22;42920;45.306;20.448;2023-07-16T11:56:44;1024.20;1305.60
57030;DHT22;42920;45.306;20.448;2023-07-16T11:59:12;1024.40;1203.20
57030;DHT22;42920;45.306;20.448;2023-07-16T12:01:38;1024.60;1203.20
57030;DHT22;42920;45.306;20.448;2023-07-16T12:04:04;1024.50;1203.20
57030;DHT22;42920;45.306;20.448;2023-07-16T12:06:30;1024.60;1203.20
57030;DHT22;42920;45.306;20.448;2023-07-16T12:08:55;1024.50;1177.60
57030;DHT22;42920;45.306;20.448;2023-07-16T12:11:21;1024.70;1203.20
57030;DHT22;42920;45.306;20.448;2023-07-16T12:13:48;1049.90;1228.80
57030;DHT22;42920;45.306;20.448;2023-07-16T12:16:13;1050.10;1203.20
57030;DHT22;42920;45.306;20.448;2023-07-16T12:18:39;1075.30;1203.20
57030;DHT22;42920;45.306;20.448;2023-07-16T12:21:05;1049.90;1228.80
57030;DHT22;42920;45.306;20.448;2023-07-16T12:23:31;1050.30;1177.60
57030;DHT22;42920;45.306;20.448;2023-07-16T12:25:57;1049.80;1177.60
57030;DHT22;42920;45.306;20.448;2023-07-16T12:28:23;1049.80;1203.20
57030;DHT22;42920;45.306;20.448;2023-07-16T12:30:48;1024.70;1152.00
57030;DHT22;42920;45.306;20.448;2023-07-16T12:33:14;1024.30;1177.60
57030;DHT22;42920;45.306;20.448;2023-07-16T12:35:40;1024.70;1203.20
57030;DHT22;42920;45.306;20.448;2023-07-16T12:38:05;1049.70;1152.00
57030;DHT22;42920;45.306;20.448;2023-07-16T12:40:31;1024.30;1228.80
57030;DHT22;42920;45.306;20.448;2023-07-16T12:42:57;1024.70;1177.60
57030;DHT22;42920;45.306;20.448;2023-07-16T12:45:23;1049.90;1177.60
57030;DHT22;42920;45.306;20.448;2023-07-16T12:47:48;1050.30;1203.20
57030;DHT22;42920;45.306;20.448;2023-07-16T12:50:15;1050.30;1177.60
57030;DHT22;42920;45.306;20.448;2023-07-16T12:52:41;1050.40;1177.60
57030;DHT22;42920;45.306;20.448;2023-07-16T12:55:07;1049.60;1126.40
57030;DHT22;42920;45.306;20.448;2023-07-16T12:57:33;1024.60;1177.60
57030;DHT22;42920;45.306;20.448;2023-07-16T12:59:58;1024.70;1177.60
57030;DHT22;42920;45.306;20.448;2023-07-16T13:02:24;1049.70;1203.20
57030;DHT22;42920;45.306;20.448;2023-07-16T13:04:50;1024.70;1177.60
57030;DHT22;42920;45.306;20.448;2023-07-16T13:07:15;1049.70;1203.20
57030;DHT22;42920;45.306;20.448;2023-07-16T13:09:41;1049.90;1228.80
57030;DHT22;42920;45.306;20.448;2023-07-16T13:12:07;1024.70;1203.20
57030;DHT22;42920;45.306;20.448;2023-07-16T13:14:33;1050.00;1203.20
57030;DHT22;42920;45.306;20.448;2023-07-16T13:16:58;1049.90;1203.20
57030;DHT22;42920;45.306;20.448;2023-07-16T13:19:26;1024.70;1254.40
57030;DHT22;42920;45.306;20.448;2023-07-16T13:21:52;1024.70;1228.80
57030;DHT22;42920;45.306;20.448;2023-07-16T13:24:17;1049.80;1254.40
57030;DHT22;42920;45.306;20.448;2023-07-16T13:26:43;1050.10;1228.80
57030;DHT22;42920;45.306;20.448;2023-07-16T13:29:09;1049.90;1177.60
57030;DHT22;42920;45.306;20.448;2023-07-16T13:31:34;1024.70;1228.80
57030;DHT22;42920;45.306;20.448;2023-07-16T13:34:00;1024.50;1228.80
57030;DHT22;42920;45.306;20.448;2023-07-16T13:36:26;1049.60;1228.80
57030;DHT22;42920;45.306;20.448;2023-07-16T13:38:51;1024.60;1203.20
57030;DHT22;42920;45.306;20.448;2023-07-16T13:41:17;1049.70;1203.20
57030;DHT22;42920;45.306;20.448;2023-07-16T13:43:43;1049.90;1203.20
57030;DHT22;42920;45.306;20.448;2023-07-16T13:46:09;1049.80;1152.00
57030;DHT22;42920;45.306;20.448;2023-07-16T13:48:34;1049.70;1203.20
57030;DHT22;42920;45.306;20.448;2023-07-16T13:51:00;1050.10;1152.00
57030;DHT22;42920;45.306;20.448;2023-07-16T13:53:26;1050.00;1177.60
57030;DHT22;42920;45.306;20.448;2023-07-16T13:55:51;1049.70;1203.20
57030;DHT22;42920;45.306;20.448;2023-07-16T13:58:18;1049.90;1177.60
57030;DHT22;42920;45.306;20.448;2023-07-16T14:00:44;1050.30;1152.00
57030;DHT22;42920;45.306;20.448;2023-07-16T14:03:10;1049.60;1203.20
57030;DHT22;42920;45.306;20.448;2023-07-16T14:05:35;1049.70;1203.20
57030;DHT22;42920;45.306;20.448;2023-07-16T14:08:04;1024.70;1177.60
57030;DHT22;42920;45.306;20.448;2023-07-16T14:10:31;1049.90;1203.20
57030;DHT22;42920;45.306;20.448;2023-07-16T14:12:57;1050.30;1203.20
57030;DHT22;42920;45.306;20.448;2023-07-16T14:15:23;1024.90;1228.80
57030;DHT22;42920;45.306;20.448;2023-07-16T14:17:49;1024.60;1203.20
57030;DHT22;42920;45.306;20.448;2023-07-16T14:20:14;1024.10;1254.40
57030;DHT22;42920;45.306;20.448;2023-07-16T14:22:40;999.10;1280.00
57030;DHT22;42920;45.306;20.448;2023-07-16T14:25:06;998.90;1254.40
57030;DHT22;42920;45.306;20.448;2023-07-16T14:27:32;999.00;1254.40
57030;DHT22;42920;45.306;20.448;2023-07-16T14:29:58;998.50;1305.60
57030;DHT22;42920;45.306;20.448;2023-07-16T14:32:24;973.70;1305.60
57030;DHT22;42920;45.306;20.448;2023-07-16T14:34:51;973.70;1305.60
57030;DHT22;42920;45.306;20.448;2023-07-16T14:37:17;973.70;1331.20
57030;DHT22;42920;45.306;20.448;2023-07-16T14:39:43;973.40;1305.60
57030;DHT22;42920;45.306;20.448;2023-07-16T14:42:08;973.40;1305.60
57030;DHT22;42920;45.306;20.448;2023-07-16T14:44:34;973.40;1280.00
57030;DHT22;42920;45.306;20.448;2023-07-16T14:47:00;973.20;1305.60
57030;DHT22;42920;45.306;20.448;2023-07-16T14:49:26;973.70;1280.00
57030;DHT22;42920;45.306;20.448;2023-07-16T14:51:51;973.70;1254.40
57030;DHT22;42920;45.306;20.448;2023-07-16T14:54:17;998.40;1280.00
57030;DHT22;42920;45.306;20.448;2023-07-16T14:56:43;998.40;1280.00